Time;durP1;ratioP1;P1;durP2;ratioP2;P2;SDS_P1;SDS_P2;PMS_P1;PMS_P2;Temp;Humidity;BMP_temperature;BMP_pressure;BME280_temperature;BME280_humidity;BME280_pressure;Samples;Min_cycle;Max_cycle;Signal;HPM_P1;HPM_P2
2021/01/23 00:00:18;;;;;;;0.00;0.00;;;-0.30;99.90;;;;;;2081121;28;20188;-60
2021/01/23 00:01:19;;;;;;;0.10;0.10;;;-0.30;99.90;;;;;;2081086;28;20196;-57
2021/01/23 00:02:20;;;;;;;0.10;0.10;;;-0.40;99.90;;;;;;2081247;28;20817;-60
2021/01/23 00:03:21;;;;;;;0.10;0.10;;;-0.40;99.90;;;;;;2081017;28;20711;-57
2021/01/23 00:04:21;;;;;;;0.10;0.10;;;-0.40;99.90;;;;;;2081177;28;20261;-58
2021/01/23 00:05:22;;;;;;;0.10;0.10;;;-0.40;99.90;;;;;;2081214;28;20171;-56
2021/01/23 00:06:23;;;;;;;0.20;0.20;;;-0.40;99.90;;;;;;2080924;28;20180;-56
2021/01/23 00:07:24;;;;;;;0.10;0.10;;;-0.40;99.90;;;;;;2120514;22;20453;-67
2021/01/23 00:08:24;;;;;;;0.10;0.10;;;-0.40;99.90;;;;;;2072032;28;20189;-68
2021/01/23 00:09:25;;;;;;;0.10;0.10;;;-0.40;99.90;;;;;;2072496;28;20188;-71
2021/01/23 00:10:26;;;;;;;0.10;0.10;;;-0.50;99.90;;;;;;2080225;28;20180;-68
2021/01/23 00:11:26;;;;;;;0.10;0.10;;;-0.40;99.90;;;;;;2079972;28;20184;-68
2021/01/23 00:12:27;;;;;;;0.10;0.10;;;-0.50;99.90;;;;;;2072794;28;20535;-68
2021/01/23 00:13:28;;;;;;;0.10;0.10;;;-0.50;99.90;;;;;;2072810;28;20192;-69
2021/01/23 00:14:29;;;;;;;0.10;0.10;;;-0.50;99.90;;;;;;2080272;28;20249;-68
2021/01/23 00:15:30;;;;;;;0.10;0.10;;;-0.50;99.90;;;;;;2080291;28;20180;-68
2021/01/23 00:16:30;;;;;;;0.10;0.10;;;-0.50;99.90;;;;;;2072712;28;20205;-69
2021/01/23 00:17:31;;;;;;;0.13;0.13;;;-0.50;99.90;;;;;;2072554;28;20208;-69
2021/01/23 00:18:32;;;;;;;0.20;0.20;;;-0.50;99.90;;;;;;2080239;28;20180;-68
2021/01/23 00:19:32;;;;;;;0.20;0.20;;;-0.50;99.90;;;;;;2080269;28;20712;-68
2021/01/23 00:20:33;;;;;;;0.10;0.10;;;-0.50;99.90;;;;;;2080045;28;20184;-68
2021/01/23 00:21:34;;;;;;;0.10;0.10;;;-0.50;99.90;;;;;;2080123;28;20187;-67
2021/01/23 00:22:35;;;;;;;0.10;0.10;;;-0.50;99.90;;;;;;2071956;28;20184;-68
2021/01/23 00:23:36;;;;;;;0.20;0.20;;;-0.50;99.90;;;;;;2064235;28;20189;-67
2021/01/23 00:24:36;;;;;;;0.10;0.10;;;-0.50;99.90;;;;;;2072164;28;20185;-71
2021/01/23 00:25:37;;;;;;;0.10;0.10;;;-0.50;99.90;;;;;;2072675;28;20183;-68
2021/01/23 00:26:38;;;;;;;0.20;0.20;;;-0.40;99.90;;;;;;2072662;28;20201;-68
2021/01/23 00:27:40;;;;;;;0.20;0.20;;;-0.40;99.90;;;;;;2080015;28;20203;-68
2021/01/23 00:28:40;;;;;;;0.20;0.20;;;-0.40;99.90;;;;;;2079981;28;20265;-69
2021/01/23 00:29:41;;;;;;;0.20;0.20;;;-0.40;99.90;;;;;;2072613;28;20228;-69
2021/01/23 00:30:42;;;;;;;0.10;0.10;;;-0.40;99.90;;;;;;2072542;28;20177;-69
2021/01/23 00:31:43;;;;;;;0.10;0.10;;;-0.40;99.90;;;;;;2072584;28;20183;-68
2021/01/23 00:32:43;;;;;;;0.20;0.20;;;-0.40;99.90;;;;;;2072543;28;20189;-69
2021/01/23 00:33:44;;;;;;;0.20;0.20;;;-0.40;99.90;;;;;;2080058;28;20188;-68
2021/01/23 00:34:45;;;;;;;0.13;0.13;;;-0.40;99.90;;;;;;2080111;28;20659;-68
2021/01/23 00:35:45;;;;;;;0.13;0.13;;;-0.40;99.90;;;;;;2072636;28;20185;-69
2021/01/23 00:36:46;;;;;;;0.10;0.10;;;-0.40;99.90;;;;;;2072602;28;20190;-68
2021/01/23 00:37:48;;;;;;;0.10;0.10;;;-0.30;99.90;;;;;;2080119;28;20205;-69
2021/01/23 00:38:49;;;;;;;0.20;0.20;;;-0.30;99.90;;;;;;2079825;28;20183;-69
2021/01/23 00:39:49;;;;;;;0.20;0.20;;;-0.30;99.90;;;;;;2072687;28;20656;-69
2021/01/23 00:40:50;;;;;;;0.10;0.10;;;-0.30;99.90;;;;;;2072436;28;20184;-68
2021/01/23 00:41:51;;;;;;;0.20;0.20;;;-0.30;99.90;;;;;;2072034;28;20255;-69
2021/01/23 00:42:51;;;;;;;0.10;0.10;;;-0.30;99.90;;;;;;2063797;28;20174;-69
2021/01/23 00:43:54;;;;;;;0.10;0.10;;;-0.30;99.90;;;;;;2071967;28;20185;-69
2021/01/23 00:44:54;;;;;;;0.10;0.10;;;-0.40;99.90;;;;;;2079997;28;20276;-69
2021/01/23 00:45:55;;;;;;;0.30;0.10;;;-0.40;99.90;;;;;;2072041;28;20178;-69
2021/01/23 00:46:56;;;;;;;0.10;0.10;;;-0.40;99.90;;;;;;2071967;28;20177;-69
2021/01/23 00:47:56;;;;;;;0.10;0.10;;;-0.40;99.90;;;;;;2072056;28;20208;-71
2021/01/23 00:48:57;;;;;;;0.30;0.13;;;-0.40;99.90;;;;;;2072051;28;20228;-69
2021/01/23 00:49:58;;;;;;;0.10;0.10;;;-0.40;99.90;;;;;;2080345;28;20242;-69
2021/01/23 00:50:58;;;;;;;2.63;0.20;;;-0.40;99.90;;;;;;2071965;28;20228;-69
2021/01/23 00:51:59;;;;;;;0.20;0.20;;;-0.40;99.90;;;;;;2072143;28;20180;-69
2021/01/23 00:53:00;;;;;;;0.20;0.20;;;-0.40;99.90;;;;;;2080217;28;20196;-69
2021/01/23 00:54:00;;;;;;;0.10;0.10;;;-0.40;99.90;;;;;;2072121;28;20691;-68
2021/01/23 00:55:01;;;;;;;0.20;0.20;;;-0.40;99.90;;;;;;2071988;28;20176;-69
2021/01/23 00:56:03;;;;;;;0.10;0.10;;;-0.50;99.90;;;;;;2072688;28;20292;-68
2021/01/23 00:57:03;;;;;;;0.10;0.10;;;-0.50;99.90;;;;;;2074310;28;20263;-69
2021/01/23 00:58:04;;;;;;;0.10;0.10;;;-0.50;99.90;;;;;;2073995;28;20254;-68
2021/01/23 00:59:05;;;;;;;0.10;0.10;;;-0.50;99.90;;;;;;2074106;28;20213;-69
2021/01/23 01:00:07;;;;;;;0.30;0.30;;;-0.50;99.90;;;;;;2074013;28;20185;-70
2021/01/23 01:01:08;;;;;;;0.20;0.20;;;-0.50;99.90;;;;;;2081559;28;20196;-71
2021/01/23 01:02:09;;;;;;;0.10;0.10;;;-0.50;99.90;;;;;;2073600;28;20192;-69
2021/01/23 01:03:09;;;;;;;0.17;0.17;;;-0.50;99.90;;;;;;2073731;28;20612;-69
2021/01/23 01:04:10;;;;;;;0.10;0.10;;;-0.50;99.90;;;;;;2073448;28;20181;-69
2021/01/23 01:05:11;;;;;;;0.10;0.10;;;-0.50;99.90;;;;;;2073532;28;20171;-69
2021/01/23 01:06:12;;;;;;;0.10;0.10;;;-0.50;99.90;;;;;;2081735;28;20173;-69
2021/01/23 01:07:12;;;;;;;0.10;0.10;;;-0.40;99.90;;;;;;2081576;28;20484;-69
2021/01/23 01:08:13;;;;;;;0.20;0.20;;;-0.50;99.90;;;;;;2073813;28;20980;-69
2021/01/23 01:09:14;;;;;;;1.20;0.17;;;-0.50;99.90;;;;;;2074118;28;20187;-70
2021/01/23 01:10:14;;;;;;;0.10;0.10;;;-0.50;99.90;;;;;;2074018;28;20185;-68
2021/01/23 01:11:15;;;;;;;0.20;0.20;;;-0.50;99.90;;;;;;2073002;28;20640;-70
2021/01/23 01:12:16;;;;;;;0.10;0.10;;;-0.50;99.90;;;;;;2073473;28;20200;-69
2021/01/23 01:13:18;;;;;;;0.17;0.17;;;-0.50;99.90;;;;;;2074069;28;20284;-69
2021/01/23 01:14:19;;;;;;;0.20;0.20;;;-0.50;99.90;;;;;;2081603;28;20312;-69
2021/01/23 01:15:19;;;;;;;0.10;0.10;;;-0.40;99.90;;;;;;2081706;28;20211;-69
2021/01/23 01:16:20;;;;;;;0.20;0.20;;;-0.50;99.90;;;;;;2073911;28;20192;-68
2021/01/23 01:17:21;;;;;;;0.20;0.20;;;-0.50;99.90;;;;;;2074018;28;20644;-69
2021/01/23 01:18:21;;;;;;;0.20;0.20;;;-0.50;99.90;;;;;;2081360;28;20233;-70
2021/01/23 01:19:22;;;;;;;0.10;0.10;;;-0.50;99.90;;;;;;2081457;28;20224;-69
2021/01/23 01:20:23;;;;;;;0.17;0.17;;;-0.50;99.90;;;;;;2073927;28;20644;-68
2021/01/23 01:21:23;;;;;;;0.20;0.20;;;-0.50;99.90;;;;;;2073761;28;20193;-69
2021/01/23 01:22:24;;;;;;;0.17;0.17;;;-0.50;99.90;;;;;;2069989;28;20203;-69
2021/01/23 01:23:25;;;;;;;0.20;0.20;;;-0.50;99.90;;;;;;2065822;28;20189;-69
2021/01/23 01:24:25;;;;;;;0.10;0.10;;;-0.50;99.90;;;;;;2065749;28;20204;-69
2021/01/23 01:25:27;;;;;;;0.10;0.10;;;-0.50;99.90;;;;;;2065816;28;20193;-69
2021/01/23 01:26:27;;;;;;;0.17;0.17;;;-0.40;99.90;;;;;;2073212;28;20682;-69
2021/01/23 01:27:28;;;;;;;0.20;0.20;;;-0.50;99.90;;;;;;2064924;28;20186;-69
2021/01/23 01:28:29;;;;;;;0.10;0.10;;;-0.50;99.90;;;;;;2065208;28;20649;-68
2021/01/23 01:29:29;;;;;;;0.20;0.20;;;-0.50;99.90;;;;;;2065725;28;20205;-69
2021/01/23 01:30:30;;;;;;;0.10;0.10;;;-0.40;99.90;;;;;;2065672;28;20193;-69
2021/01/23 01:31:31;;;;;;;0.20;0.20;;;-0.50;99.90;;;;;;2065303;28;20186;-68
2021/01/23 01:32:31;;;;;;;0.10;0.10;;;-0.50;99.90;;;;;;2073111;28;20181;-68
2021/01/23 01:33:32;;;;;;;0.17;0.17;;;-0.50;99.90;;;;;;2073132;28;20181;-70
2021/01/23 01:34:33;;;;;;;0.20;0.20;;;-0.50;99.90;;;;;;2073080;28;20185;-69
2021/01/23 01:35:34;;;;;;;0.20;0.20;;;-0.50;99.90;;;;;;2073055;28;20774;-69
2021/01/23 01:36:34;;;;;;;0.10;0.10;;;-0.50;99.90;;;;;;2065156;28;20189;-69
2021/01/23 01:37:35;;;;;;;0.20;0.20;;;-0.50;99.90;;;;;;2065491;28;20209;-68
2021/01/23 01:38:36;;;;;;;0.20;0.20;;;-0.50;99.90;;;;;;2065676;28;20727;-69
2021/01/23 01:39:37;;;;;;;0.30;0.30;;;-0.50;99.90;;;;;;2065627;28;20213;-68
2021/01/23 01:40:37;;;;;;;0.20;0.20;;;-0.50;99.90;;;;;;2065618;28;20193;-68
2021/01/23 01:41:39;;;;;;;0.10;0.10;;;-0.50;99.90;;;;;;2065345;28;20828;-69
2021/01/23 01:42:40;;;;;;;0.20;0.20;;;-0.50;99.90;;;;;;2073201;28;20537;-69
2021/01/23 01:43:43;;;;;;;0.20;0.20;;;-0.50;99.90;;;;;;2064801;28;20193;-68
2021/01/23 01:44:44;;;;;;;0.20;0.20;;;-0.50;99.90;;;;;;2057404;28;20190;-69
2021/01/23 01:45:45;;;;;;;0.20;0.20;;;-0.50;99.90;;;;;;2057247;28;20289;-69
2021/01/23 01:46:46;;;;;;;0.25;0.25;;;-0.40;99.90;;;;;;2064950;28;20202;-69
2021/01/23 01:47:47;;;;;;;0.20;0.20;;;-0.50;99.90;;;;;;2072842;28;20231;-68
2021/01/23 01:48:49;;;;;;;0.20;0.20;;;-0.50;99.90;;;;;;2064820;28;20190;-68
2021/01/23 01:49:51;;;;;;;0.20;0.20;;;-0.50;99.90;;;;;;2064952;28;20186;-69
2021/01/23 01:50:54;;;;;;;0.10;0.10;;;-0.50;99.90;;;;;;2072849;28;20185;-70
2021/01/23 01:51:56;;;;;;;0.20;0.20;;;-0.40;99.90;;;;;;2064939;28;20272;-69
2021/01/23 01:52:56;;;;;;;0.30;0.20;;;-0.40;99.90;;;;;;2064940;28;20676;-69
2021/01/23 01:53:57;;;;;;;0.30;0.30;;;-0.50;99.90;;;;;;2064741;28;20220;-69
2021/01/23 01:54:59;;;;;;;0.10;0.10;;;-0.40;99.90;;;;;;2065553;28;20185;-69
2021/01/23 01:56:00;;;;;;;0.35;0.20;;;-0.50;99.90;;;;;;2072898;28;20269;-68
2021/01/23 01:57:01;;;;;;;0.10;0.10;;;-0.50;99.90;;;;;;2064977;28;20200;-68
2021/01/23 01:58:02;;;;;;;0.20;0.20;;;-0.40;99.90;;;;;;2064757;28;20280;-69
2021/01/23 01:59:03;;;;;;;0.20;0.20;;;-0.40;99.90;;;;;;2072856;28;20224;-69
2021/01/23 02:00:06;;;;;;;0.20;0.20;;;-0.40;99.90;;;;;;2064716;28;20669;-69
2021/01/23 02:01:07;;;;;;;0.20;0.20;;;-0.40;99.90;;;;;;2056946;28;20187;-69
2021/01/23 02:02:40;;;;;;;0.20;0.20;;;-0.40;99.90;;;;;;2056816;28;20221;-69
2021/01/23 02:04:14;;;;;;;0.20;0.10;;;-0.40;99.90;;;;;;2061152;28;20668;-69
2021/01/23 02:05:31;;;;;;;0.30;0.30;;;-0.40;99.90;;;;;;2061238;28;20174;-69
2021/01/23 02:06:48;;;;;;;0.40;0.30;;;-0.40;99.90;;;;;;2066928;28;20609;-69
2021/01/23 02:08:41;;;;;;;0.10;0.10;;;-0.40;99.90;;;;;;2070842;28;20230;-69
2021/01/23 02:10:02;;;;;;;0.20;0.20;;;-0.40;99.90;;;;;;2049728;28;20198;-69
2021/01/23 02:11:31;;;;;;;0.20;0.20;;;-0.40;99.90;;;;;;2067113;28;20173;-69
2021/01/23 02:13:06;;;;;;;0.20;0.20;;;-0.40;99.90;;;;;;2069478;28;20262;-69
2021/01/23 02:14:49;;;;;;;0.30;0.30;;;-0.40;99.90;;;;;;2064463;28;20623;-68
2021/01/23 02:16:10;;;;;;;0.20;0.20;;;-0.40;99.90;;;;;;2065307;28;20555;-69
2021/01/23 02:17:14;;;;;;;0.20;0.20;;;-0.40;99.90;;;;;;2064560;28;20181;-68
2021/01/23 02:18:18;;;;;;;0.30;0.30;;;-0.40;99.90;;;;;;2057149;28;20181;-68
2021/01/23 02:19:27;;;;;;;0.35;0.35;;;-0.40;99.90;;;;;;2056887;28;20217;-69
2021/01/23 02:20:57;;;;;;;0.20;0.20;;;-0.40;99.90;;;;;;2064859;28;20724;-69
2021/01/23 02:22:17;;;;;;;0.10;0.10;;;-0.40;99.90;;;;;;2072724;28;20170;-69
2021/01/23 02:23:29;;;;;;;0.30;0.30;;;-0.40;99.90;;;;;;2064650;28;20250;-69
2021/01/23 02:24:31;;;;;;;0.40;0.40;;;-0.40;99.90;;;;;;2058239;28;20174;-69
2021/01/23 02:25:59;;;;;;;0.20;0.20;;;-0.40;99.90;;;;;;2056865;28;20219;-69
2021/01/23 02:27:19;;;;;;;0.30;0.30;;;-0.30;99.90;;;;;;2050097;28;20187;-69
2021/01/23 02:28:25;;;;;;;0.28;0.20;;;-0.40;99.90;;;;;;2064937;28;20193;-69
2021/01/23 02:29:40;;;;;;;0.20;0.20;;;-0.30;99.90;;;;;;2064578;28;20192;-69
2021/01/23 02:31:07;;;;;;;0.20;0.20;;;-0.30;99.90;;;;;;2064750;28;20604;-69
2021/01/23 02:32:09;;;;;;;0.30;0.30;;;-0.40;99.90;;;;;;2072582;28;20195;-69
2021/01/23 02:33:12;;;;;;;0.30;0.30;;;-0.30;99.90;;;;;;2072626;28;20213;-69
2021/01/23 02:34:18;;;;;;;0.25;0.25;;;-0.30;99.90;;;;;;2064800;28;20612;-69
2021/01/23 02:35:19;;;;;;;0.30;0.30;;;-0.40;99.90;;;;;;2049157;28;20368;-68
2021/01/23 02:36:22;;;;;;;0.30;0.30;;;-0.40;99.90;;;;;;2048869;28;20191;-69
2021/01/23 02:37:25;;;;;;;0.10;0.10;;;-0.40;99.90;;;;;;2064661;28;20189;-69
2021/01/23 02:38:26;;;;;;;0.30;0.30;;;-0.40;99.90;;;;;;2064766;28;20236;-68
2021/01/23 02:39:29;;;;;;;0.20;0.20;;;-0.40;99.90;;;;;;2064507;28;20292;-69
2021/01/23 02:40:30;;;;;;;0.20;0.20;;;-0.40;99.90;;;;;;2072644;28;20231;-69
2021/01/23 02:41:31;;;;;;;0.20;0.20;;;-0.40;99.90;;;;;;2072481;28;20181;-69
2021/01/23 02:42:31;;;;;;;0.50;0.20;;;-0.40;99.90;;;;;;2072605;28;20578;-69
2021/01/23 02:43:42;;;;;;;0.10;0.10;;;-0.40;99.90;;;;;;2072797;28;20181;-69
2021/01/23 02:44:43;;;;;;;0.25;0.25;;;-0.40;99.90;;;;;;2072809;28;20155;-70
2021/01/23 02:45:47;;;;;;;0.13;0.13;;;-0.40;99.90;;;;;;2072731;28;20284;-69
2021/01/23 02:46:53;;;;;;;0.20;0.20;;;-0.40;99.90;;;;;;2072810;28;20581;-70
2021/01/23 02:47:54;;;;;;;0.20;0.20;;;-0.40;99.90;;;;;;2064514;28;20208;-69
2021/01/23 02:48:55;;;;;;;0.27;0.27;;;-0.40;99.90;;;;;;2064669;28;20180;-69
2021/01/23 02:49:56;;;;;;;0.20;0.20;;;-0.30;99.90;;;;;;2065195;28;20178;-69
2021/01/23 02:51:01;;;;;;;0.20;0.20;;;-0.30;99.90;;;;;;2072531;28;20184;-69
2021/01/23 02:52:26;;;;;;;0.20;0.20;;;-0.30;99.90;;;;;;2064449;28;20198;-68
2021/01/23 02:53:33;;;;;;;0.45;0.20;;;-0.30;99.90;;;;;;2064740;28;20181;-69
2021/01/23 02:54:56;;;;;;;0.15;0.15;;;-0.30;99.90;;;;;;2072544;28;20184;-69
2021/01/23 02:56:07;;;;;;;0.10;0.10;;;-0.30;99.90;;;;;;2064570;28;20661;-70
2021/01/23 02:57:11;;;;;;;0.20;0.20;;;-0.30;99.90;;;;;;2049895;28;20262;-69
2021/01/23 02:58:13;;;;;;;0.10;0.10;;;-0.30;99.90;;;;;;2049121;28;20736;-69
2021/01/23 02:59:14;;;;;;;0.20;0.20;;;-0.30;99.90;;;;;;2064362;28;20932;-69
2021/01/23 03:00:17;;;;;;;0.20;0.20;;;-0.30;99.90;;;;;;2064433;28;20183;-69
2021/01/23 03:01:25;;;;;;;0.20;0.20;;;-0.30;99.90;;;;;;2064176;28;20180;-69
2021/01/23 03:02:27;;;;;;;0.20;0.20;;;-0.30;99.90;;;;;;2063023;28;20193;-69
2021/01/23 03:03:30;;;;;;;0.20;0.20;;;-0.30;99.90;;;;;;2064887;28;20182;-69
2021/01/23 03:04:32;;;;;;;0.22;0.22;;;-0.20;99.90;;;;;;2071972;28;20204;-69
2021/01/23 03:05:34;;;;;;;0.15;0.15;;;-0.20;99.90;;;;;;2072540;28;20633;-69
2021/01/23 03:06:37;;;;;;;0.20;0.20;;;-0.30;99.90;;;;;;2072294;28;20186;-69
2021/01/23 03:07:38;;;;;;;0.10;0.10;;;-0.30;99.90;;;;;;2064376;28;20216;-68
2021/01/23 03:08:46;;;;;;;0.83;0.20;;;-0.30;99.90;;;;;;2064323;28;20731;-70
2021/01/23 03:09:46;;;;;;;0.22;0.22;;;-0.30;99.90;;;;;;2064357;28;20437;-69
2021/01/23 03:10:47;;;;;;;0.20;0.20;;;-0.30;99.90;;;;;;2064292;28;20189;-69
2021/01/23 03:11:49;;;;;;;0.20;0.20;;;-0.30;99.90;;;;;;2064858;28;20268;-68
2021/01/23 03:12:50;;;;;;;0.20;0.20;;;-0.30;99.90;;;;;;2065010;28;20232;-69
2021/01/23 03:13:50;;;;;;;0.20;0.20;;;-0.30;99.90;;;;;;2065098;28;20204;-68
2021/01/23 03:14:51;;;;;;;0.20;0.20;;;-0.20;99.90;;;;;;2064693;28;20788;-68
2021/01/23 03:15:52;;;;;;;0.17;0.17;;;-0.20;99.90;;;;;;2067503;28;20222;-70
2021/01/23 03:16:55;;;;;;;0.10;0.10;;;-0.20;99.90;;;;;;2064943;28;20780;-69
2021/01/23 03:17:56;;;;;;;0.20;0.20;;;-0.20;99.90;;;;;;2072340;28;20231;-68
2021/01/23 03:18:57;;;;;;;0.30;0.30;;;-0.20;99.90;;;;;;2071875;28;20181;-69
2021/01/23 03:19:58;;;;;;;0.20;0.20;;;-0.20;99.90;;;;;;2064923;28;20642;-68
2021/01/23 03:20:58;;;;;;;0.20;0.20;;;-0.30;99.90;;;;;;2064487;28;20593;-69
2021/01/23 03:21:59;;;;;;;0.30;0.17;;;-0.30;99.90;;;;;;2064867;28;20182;-69
2021/01/23 03:23:02;;;;;;;0.10;0.10;;;-0.30;99.90;;;;;;2064252;28;20569;-69
2021/01/23 03:24:03;;;;;;;0.20;0.20;;;-0.30;99.90;;;;;;2064365;28;20657;-69
2021/01/23 03:25:04;;;;;;;0.10;0.10;;;-0.30;99.90;;;;;;2072276;28;20801;-69
2021/01/23 03:26:05;;;;;;;0.30;0.30;;;-0.30;99.90;;;;;;2072163;28;20677;-69
2021/01/23 03:27:05;;;;;;;1.27;0.20;;;-0.30;99.90;;;;;;2072278;28;20192;-69
2021/01/23 03:28:06;;;;;;;0.50;0.30;;;-0.30;99.90;;;;;;2072345;28;20758;-69
2021/01/23 03:29:07;;;;;;;0.20;0.20;;;-0.30;99.90;;;;;;2064769;28;20241;-69
2021/01/23 03:30:08;;;;;;;0.70;0.40;;;-0.20;99.90;;;;;;2072416;28;20194;-69
2021/01/23 03:31:09;;;;;;;0.43;0.43;;;-0.20;99.90;;;;;;2063734;28;20194;-69
2021/01/23 03:32:10;;;;;;;0.40;0.40;;;-0.20;99.90;;;;;;2064274;28;20216;-69
2021/01/23 03:33:11;;;;;;;0.50;0.50;;;-0.10;99.90;;;;;;2064910;28;20185;-70
2021/01/23 03:34:12;;;;;;;0.37;0.37;;;-0.20;99.90;;;;;;2064844;28;20214;-69
2021/01/23 03:35:13;;;;;;;0.30;0.30;;;-0.20;99.90;;;;;;2064154;28;20175;-69
2021/01/23 03:36:13;;;;;;;0.30;0.30;;;-0.20;99.90;;;;;;2064295;28;20237;-69
2021/01/23 03:37:14;;;;;;;0.47;0.43;;;-0.20;99.90;;;;;;2071909;28;20894;-69
2021/01/23 03:38:15;;;;;;;0.50;0.50;;;-0.10;99.90;;;;;;2064801;28;20245;-69
2021/01/23 03:39:15;;;;;;;1.20;0.70;;;-0.20;99.90;;;;;;2072233;28;20300;-69
2021/01/23 03:40:17;;;;;;;0.50;0.40;;;-0.10;99.90;;;;;;2072306;28;20571;-69
2021/01/23 03:41:18;;;;;;;0.30;0.30;;;-0.10;99.90;;;;;;2064577;28;20193;-69
2021/01/23 03:42:19;;;;;;;0.43;0.40;;;-0.10;99.90;;;;;;2063919;28;20588;-69
2021/01/23 03:43:20;;;;;;;0.63;0.63;;;0.00;99.90;;;;;;2056196;28;20189;-69
2021/01/23 03:44:21;;;;;;;0.30;0.30;;;-0.10;99.90;;;;;;2064192;28;20611;-69
2021/01/23 03:45:21;;;;;;;0.40;0.40;;;-0.10;99.90;;;;;;2072325;28;20288;-69
2021/01/23 03:46:22;;;;;;;0.20;0.20;;;-0.10;99.90;;;;;;2072206;28;20552;-69
2021/01/23 03:47:23;;;;;;;0.40;0.40;;;-0.10;99.90;;;;;;2064620;28;20192;-68
2021/01/23 03:48:23;;;;;;;0.37;0.37;;;-0.10;99.90;;;;;;2064704;28;20179;-71
2021/01/23 03:49:24;;;;;;;0.53;0.30;;;0.00;99.90;;;;;;2064755;28;20189;-69
2021/01/23 03:50:25;;;;;;;0.37;0.37;;;0.00;99.90;;;;;;2064640;28;20179;-69
2021/01/23 03:51:26;;;;;;;0.30;0.30;;;0.00;99.90;;;;;;2064500;28;20189;-69
2021/01/23 03:52:26;;;;;;;0.40;0.40;;;0.00;99.90;;;;;;2064714;28;20592;-69
2021/01/23 03:53:27;;;;;;;0.30;0.30;;;0.00;99.90;;;;;;2072221;28;20276;-69
2021/01/23 03:54:27;;;;;;;0.40;0.40;;;-0.10;99.90;;;;;;2072291;28;20276;-70
2021/01/23 03:55:28;;;;;;;0.40;0.40;;;-0.10;99.90;;;;;;2064697;28;20749;-69
2021/01/23 03:56:29;;;;;;;0.60;0.50;;;0.00;99.90;;;;;;2064744;28;20190;-69
2021/01/23 03:57:29;;;;;;;0.67;0.67;;;-0.10;99.90;;;;;;2064679;28;20545;-70
2021/01/23 03:58:30;;;;;;;0.40;0.40;;;-0.10;99.90;;;;;;2064653;28;20187;-72
2021/01/23 03:59:31;;;;;;;0.40;0.40;;;-0.10;99.90;;;;;;2070192;28;20216;-70
2021/01/23 04:00:32;;;;;;;0.40;0.40;;;-0.20;99.90;;;;;;2072247;28;20427;-69
2021/01/23 04:01:32;;;;;;;0.93;0.63;;;-0.20;99.90;;;;;;2064452;28;20181;-69
2021/01/23 04:02:34;;;;;;;0.43;0.43;;;-0.30;99.90;;;;;;2064806;28;20181;-70
2021/01/23 04:03:35;;;;;;;0.85;0.70;;;-0.30;99.90;;;;;;2064585;28;20177;-69
2021/01/23 04:04:36;;;;;;;0.80;0.80;;;-0.30;99.90;;;;;;2064854;28;20676;-69
2021/01/23 04:05:36;;;;;;;1.67;0.90;;;-0.30;99.90;;;;;;2064600;28;20264;-69
2021/01/23 04:06:37;;;;;;;0.63;0.63;;;-0.30;99.90;;;;;;2072267;28;20699;-70
2021/01/23 04:07:38;;;;;;;0.50;0.50;;;-0.30;99.90;;;;;;2063924;28;20278;-69
2021/01/23 04:08:38;;;;;;;0.73;0.70;;;-0.40;99.90;;;;;;2064422;28;20257;-69
2021/01/23 04:09:39;;;;;;;0.50;0.50;;;-0.50;99.90;;;;;;2064615;28;20191;-69
2021/01/23 04:10:40;;;;;;;0.43;0.43;;;-0.50;99.90;;;;;;2064130;28;20182;-68
2021/01/23 04:11:40;;;;;;;0.70;0.70;;;-0.50;99.90;;;;;;2063796;28;20182;-68
2021/01/23 04:12:41;;;;;;;0.53;0.53;;;-0.50;99.90;;;;;;2072253;28;20212;-68
2021/01/23 04:13:42;;;;;;;0.50;0.50;;;-0.50;99.90;;;;;;2064586;28;20264;-69
2021/01/23 04:14:42;;;;;;;0.50;0.50;;;-0.60;99.90;;;;;;2064595;28;20185;-68
2021/01/23 04:15:44;;;;;;;0.63;0.63;;;-0.60;99.90;;;;;;2064720;28;20206;-68
2021/01/23 04:16:51;;;;;;;0.60;0.60;;;-0.60;99.90;;;;;;2064571;28;20192;-68
2021/01/23 04:17:52;;;;;;;1.27;0.60;;;-0.60;99.90;;;;;;2064595;28;20293;-69
2021/01/23 04:18:52;;;;;;;0.70;0.60;;;-0.60;99.90;;;;;;2072142;28;20531;-68
2021/01/23 04:19:54;;;;;;;0.67;0.63;;;-0.70;99.90;;;;;;2072134;28;20232;-68
2021/01/23 04:20:55;;;;;;;0.57;0.57;;;-0.60;99.90;;;;;;2064392;28;20190;-69
2021/01/23 04:21:56;;;;;;;0.75;0.70;;;-0.70;99.90;;;;;;2064752;28;20269;-68
2021/01/23 04:22:57;;;;;;;2.00;0.80;;;-0.70;99.90;;;;;;2064660;28;20185;-69
2021/01/23 04:23:58;;;;;;;1.35;0.65;;;-0.70;99.90;;;;;;2064635;28;20623;-71
2021/01/23 04:24:59;;;;;;;0.98;0.70;;;-0.70;99.90;;;;;;2072214;28;20189;-70
2021/01/23 04:26:00;;;;;;;0.50;0.50;;;-0.70;99.90;;;;;;2072229;28;20264;-70
2021/01/23 04:27:01;;;;;;;0.80;0.80;;;-0.70;99.90;;;;;;2064607;28;20197;-71
2021/01/23 04:28:04;;;;;;;0.80;0.80;;;-0.70;99.90;;;;;;2064796;28;20207;-69
2021/01/23 04:29:04;;;;;;;0.90;0.80;;;-0.70;99.90;;;;;;2072162;28;20656;-68
2021/01/23 04:30:08;;;;;;;0.73;0.73;;;-0.70;99.90;;;;;;2072163;28;20216;-70
2021/01/23 04:31:09;;;;;;;0.82;0.63;;;-0.70;99.90;;;;;;2063984;28;20190;-69
2021/01/23 04:32:10;;;;;;;0.70;0.70;;;-0.70;99.90;;;;;;2066199;28;20244;-69
2021/01/23 04:33:11;;;;;;;1.00;0.77;;;-0.70;99.90;;;;;;2065543;28;20656;-68
2021/01/23 04:34:11;;;;;;;0.63;0.63;;;-0.70;99.90;;;;;;2065748;28;20306;-68
2021/01/23 04:35:13;;;;;;;0.70;0.70;;;-0.70;99.90;;;;;;2065789;28;20309;-68
2021/01/23 04:36:14;;;;;;;0.80;0.80;;;-0.60;99.90;;;;;;2066151;28;20620;-68
2021/01/23 04:37:14;;;;;;;1.47;0.80;;;-0.60;99.90;;;;;;2065402;28;20209;-68
2021/01/23 04:38:15;;;;;;;0.83;0.83;;;-0.50;99.90;;;;;;2065649;28;20236;-68
2021/01/23 04:39:17;;;;;;;1.00;0.90;;;-0.50;99.90;;;;;;2066063;28;20213;-69
2021/01/23 04:40:17;;;;;;;1.80;1.20;;;-0.50;99.90;;;;;;2066164;28;20210;-68
2021/01/23 04:41:18;;;;;;;1.30;1.00;;;-0.40;99.90;;;;;;2065836;28;20526;-69
2021/01/23 04:42:20;;;;;;;1.10;1.00;;;-0.40;99.90;;;;;;2073690;28;20225;-69
2021/01/23 04:43:22;;;;;;;1.30;1.17;;;-0.40;99.90;;;;;;2073455;28;20178;-68
2021/01/23 04:44:23;;;;;;;1.10;1.00;;;-0.40;99.90;;;;;;2073573;28;20195;-68
2021/01/23 04:45:24;;;;;;;1.30;1.10;;;-0.30;99.90;;;;;;2073609;28;20205;-69
2021/01/23 04:46:24;;;;;;;1.93;1.27;;;-0.30;99.90;;;;;;2066201;28;20601;-69
2021/01/23 04:47:25;;;;;;;1.20;1.10;;;-0.30;99.90;;;;;;2073342;28;20686;-69
2021/01/23 04:48:27;;;;;;;1.20;1.10;;;-0.40;99.90;;;;;;2065561;28;20625;-68
2021/01/23 04:49:34;;;;;;;1.50;1.40;;;-0.40;99.90;;;;;;2065421;28;20638;-68
2021/01/23 04:50:34;;;;;;;1.33;1.17;;;-0.40;99.90;;;;;;2066371;28;20186;-70
2021/01/23 04:51:35;;;;;;;1.40;1.30;;;-0.40;99.90;;;;;;2073284;28;20187;-68
2021/01/23 04:52:40;;;;;;;1.87;1.10;;;-0.30;99.90;;;;;;2073514;28;20220;-69
2021/01/23 04:53:44;;;;;;;1.80;1.20;;;-0.30;99.90;;;;;;2065450;28;20189;-68
2021/01/23 04:54:45;;;;;;;1.42;1.30;;;-0.40;99.90;;;;;;2065852;28;20189;-68
2021/01/23 04:55:46;;;;;;;1.80;1.40;;;-0.30;99.90;;;;;;2057284;28;20678;-69
2021/01/23 04:56:47;;;;;;;1.60;1.50;;;-0.30;99.90;;;;;;2057388;28;20190;-68
2021/01/23 04:57:47;;;;;;;1.97;1.60;;;-0.20;99.90;;;;;;2056989;28;20266;-69
2021/01/23 04:58:48;;;;;;;1.87;1.47;;;-0.20;99.90;;;;;;2057273;28;20185;-69
2021/01/23 04:59:49;;;;;;;1.80;1.70;;;-0.30;99.90;;;;;;2065327;28;20265;-69
2021/01/23 05:00:49;;;;;;;1.80;1.50;;;-0.30;99.90;;;;;;2065879;28;20174;-69
2021/01/23 05:02:20;;;;;;;2.30;1.80;;;-0.30;99.90;;;;;;2065891;28;20179;-69
2021/01/23 05:03:21;;;;;;;2.35;1.80;;;-0.20;99.90;;;;;;2073256;28;20537;-68
2021/01/23 05:04:21;;;;;;;1.70;1.50;;;-0.30;99.90;;;;;;2073348;28;20200;-68
2021/01/23 05:05:22;;;;;;;1.50;1.40;;;-0.20;99.90;;;;;;2065977;28;20197;-68
2021/01/23 05:06:23;;;;;;;2.30;1.63;;;-0.30;99.90;;;;;;2065857;28;20186;-68
2021/01/23 05:07:40;;;;;;;2.05;1.80;;;-0.30;99.90;;;;;;2065156;28;20200;-68
2021/01/23 05:08:41;;;;;;;1.63;1.52;;;-0.30;99.90;;;;;;2065159;28;20731;-69
2021/01/23 05:09:41;;;;;;;2.20;1.70;;;-0.30;99.90;;;;;;2065362;28;20226;-68
2021/01/23 05:10:42;;;;;;;3.33;1.80;;;-0.30;99.90;;;;;;2073291;28;20177;-69
2021/01/23 05:11:49;;;;;;;1.70;1.60;;;-0.20;99.90;;;;;;2073288;28;20672;-69
2021/01/23 05:12:55;;;;;;;2.20;1.77;;;-0.20;99.90;;;;;;2068237;28;20185;-69
2021/01/23 05:14:13;;;;;;;2.53;1.50;;;-0.20;99.90;;;;;;2057057;28;20245;-68
2021/01/23 05:15:23;;;;;;;1.95;1.50;;;-0.20;99.90;;;;;;2059618;28;20630;-68
2021/01/23 05:16:24;;;;;;;2.05;1.30;;;-0.30;99.90;;;;;;2057113;28;20281;-68
2021/01/23 05:17:25;;;;;;;2.00;1.45;;;-0.30;99.90;;;;;;2057276;28;20190;-69
2021/01/23 05:18:26;;;;;;;1.63;1.50;;;-0.30;99.90;;;;;;2065124;28;20186;-69
2021/01/23 05:19:40;;;;;;;1.97;1.60;;;-0.30;99.90;;;;;;2065077;28;20198;-68
2021/01/23 05:20:47;;;;;;;1.98;1.50;;;-0.30;99.90;;;;;;2057124;28;20202;-69
2021/01/23 05:22:00;;;;;;;2.20;1.40;;;-0.30;99.90;;;;;;2057192;28;20265;-68
2021/01/23 05:23:17;;;;;;;2.00;1.50;;;-0.20;99.90;;;;;;2057117;28;20170;-69
2021/01/23 05:24:18;;;;;;;1.70;1.27;;;-0.20;99.90;;;;;;2051223;28;20794;-70
2021/01/23 05:25:19;;;;;;;2.35;1.52;;;-0.20;99.90;;;;;;2056868;28;20237;-69
2021/01/23 05:26:25;;;;;;;1.87;1.50;;;-0.20;99.90;;;;;;2056972;28;20681;-69
2021/01/23 05:27:26;;;;;;;2.00;1.70;;;-0.10;99.90;;;;;;2049801;28;20242;-69
2021/01/23 05:28:38;;;;;;;1.73;1.63;;;-0.10;99.90;;;;;;2065220;28;20535;-69
2021/01/23 05:29:59;;;;;;;1.60;1.30;;;-0.10;99.90;;;;;;2057141;28;20232;-69